createdAt,value
2023-11-18T00:02:05.507Z,2.66
2023-11-18T00:04:50.624Z,2.18
2023-11-18T00:07:35.631Z,2.51
2023-11-18T00:10:20.614Z,2.65
2023-11-18T00:13:05.266Z,2.42
2023-11-18T00:15:50.400Z,2.30
2023-11-18T00:18:35.250Z,2.47
2023-11-18T00:21:20.363Z,2.45
2023-11-18T00:24:05.524Z,2.36
2023-11-18T00:26:50.469Z,2.31
2023-11-18T00:29:35.557Z,2.25
2023-11-18T00:32:20.570Z,2.17
2023-11-18T00:35:05.413Z,2.34
2023-11-18T00:37:50.404Z,2.38
2023-11-18T00:40:35.337Z,2.31
2023-11-18T00:43:20.409Z,2.27
2023-11-18T00:46:05.191Z,2.30
2023-11-18T00:48:50.147Z,2.30
2023-11-18T00:51:34.991Z,2.37
2023-11-18T00:54:19.945Z,2.39
2023-11-18T00:57:04.793Z,2.25
2023-11-18T00:59:49.747Z,2.34
2023-11-18T01:02:34.626Z,2.44
2023-11-18T01:05:19.551Z,2.39
2023-11-18T01:08:04.506Z,2.42
2023-11-18T01:10:49.492Z,2.24
2023-11-18T01:13:34.459Z,1.77
2023-11-18T01:16:19.421Z,1.19
2023-11-18T01:19:04.643Z,0.75
2023-11-18T01:21:49.226Z,0.72
2023-11-18T01:24:34.251Z,0.82
2023-11-18T01:27:19.185Z,1.03
2023-11-18T01:30:04.186Z,1.68
2023-11-18T01:32:49.244Z,1.78
2023-11-18T01:35:34.172Z,1.95
2023-11-18T01:38:19.055Z,2.02
2023-11-18T01:41:04.069Z,1.96
2023-11-18T01:43:49.022Z,2.08
2023-11-18T01:46:33.970Z,2.16
2023-11-18T01:49:18.940Z,1.92
2023-11-18T01:55:29.546Z,1.97
2023-11-18T01:58:14.396Z,1.80
2023-11-18T02:00:59.275Z,1.80
2023-11-18T02:03:44.254Z,1.49
2023-11-18T02:06:29.146Z,1.57
2023-11-18T02:09:13.972Z,1.26
2023-11-18T02:11:59.007Z,1.63
2023-11-18T02:14:43.845Z,1.75
2023-11-18T02:17:28.979Z,1.83
2023-11-18T02:20:13.575Z,1.71
2023-11-18T02:22:58.526Z,1.79
2023-11-18T02:25:43.439Z,1.72
2023-11-18T02:28:28.398Z,1.38
2023-11-18T02:31:13.384Z,1.42
2023-11-18T02:33:58.393Z,1.53
2023-11-18T02:36:43.239Z,1.61
2023-11-18T02:39:28.244Z,1.67
2023-11-18T02:42:13.245Z,1.70
2023-11-18T02:44:58.313Z,1.76
2023-11-18T02:47:43.265Z,1.82
2023-11-18T02:50:28.389Z,1.86
2023-11-18T02:53:13.363Z,1.84
2023-11-18T02:55:58.439Z,1.75
2023-11-18T02:58:43.326Z,1.70
2023-11-18T03:01:28.376Z,1.77
2023-11-18T03:04:13.382Z,1.82
2023-11-18T03:06:58.311Z,1.86
2023-11-18T03:09:43.292Z,1.78
2023-11-18T03:12:28.282Z,1.78
2023-11-18T03:15:13.136Z,1.81
2023-11-18T03:17:58.005Z,1.60
2023-11-18T03:20:43.033Z,1.41
2023-11-18T03:23:27.654Z,1.35
2023-11-18T03:26:12.818Z,1.47
2023-11-18T03:28:57.931Z,1.64
2023-11-18T03:31:42.580Z,1.58
2023-11-18T03:34:27.543Z,1.70
2023-11-18T03:37:12.478Z,1.73
2023-11-18T03:39:57.430Z,1.65
2023-11-18T03:42:42.302Z,1.59
2023-11-18T03:45:27.290Z,1.36
2023-11-18T03:48:12.188Z,1.06
2023-11-18T03:50:57.087Z,0.97
2023-11-18T03:53:42.144Z,0.79
2023-11-18T03:56:27.097Z,0.90
2023-11-18T03:59:12.134Z,1.17
2023-11-18T04:01:57.088Z,1.39
2023-11-18T04:04:42.125Z,1.54
2023-11-18T04:07:27.012Z,1.17
2023-11-18T04:10:12.075Z,0.87
2023-11-18T04:12:57.057Z,1.27
2023-11-18T04:15:41.986Z,1.31
2023-11-18T04:18:26.856Z,1.53
2023-11-18T04:21:11.676Z,1.66
2023-11-18T04:23:56.703Z,1.86
2023-11-18T04:26:41.666Z,1.89
2023-11-18T04:29:26.649Z,1.86
2023-11-18T04:32:11.481Z,1.80
2023-11-18T04:34:56.475Z,1.89
2023-11-18T04:37:41.424Z,1.93
2023-11-18T04:40:26.342Z,1.98
2023-11-18T04:43:11.425Z,1.99
2023-11-18T04:45:56.397Z,2.09
2023-11-18T04:48:42.560Z,2.12
2023-11-18T04:51:27.609Z,2.12
2023-11-18T04:54:12.630Z,2.19
2023-11-18T04:56:57.645Z,2.24
2023-11-18T04:59:42.582Z,2.19
2023-11-18T05:02:27.733Z,2.22
2023-11-18T05:05:12.687Z,2.20
2023-11-18T05:07:57.710Z,2.23
2023-11-18T05:10:42.580Z,2.25
2023-11-18T05:13:27.638Z,2.22
2023-11-18T05:16:12.558Z,2.27
2023-11-18T05:18:57.581Z,2.25
2023-11-18T05:21:42.423Z,2.31
2023-11-18T05:24:27.466Z,2.30
2023-11-18T05:27:12.670Z,2.29
2023-11-18T05:29:57.701Z,2.24
2023-11-18T05:32:42.747Z,2.20
2023-11-18T05:35:27.591Z,2.24
2023-11-18T05:38:12.642Z,2.16
2023-11-18T05:40:58.056Z,2.19
2023-11-18T05:43:43.178Z,2.13
2023-11-18T05:46:28.272Z,2.02
2023-11-18T05:49:13.188Z,1.90
2023-11-18T05:51:58.288Z,1.70
2023-11-18T05:54:43.102Z,2.02
2023-11-18T05:57:27.929Z,2.00
2023-11-18T06:00:12.867Z,1.95
2023-11-18T06:02:57.963Z,2.08
2023-11-18T06:05:42.958Z,1.93
2023-11-18T06:08:27.989Z,2.08
2023-11-18T06:11:13.117Z,2.16
2023-11-18T06:13:58.007Z,2.10
2023-11-18T06:16:43.405Z,2.18
2023-11-18T06:19:28.273Z,2.19
2023-11-18T06:22:13.368Z,2.22
2023-11-18T06:24:58.322Z,2.23
2023-11-18T06:27:42.981Z,2.32
2023-11-18T06:30:28.001Z,2.25
2023-11-18T06:33:13.046Z,2.19
2023-11-18T06:35:57.897Z,2.30
2023-11-18T06:38:42.823Z,2.35
2023-11-18T06:41:27.972Z,2.31
2023-11-18T06:44:13.191Z,2.48
2023-11-18T06:46:58.230Z,2.50
2023-11-18T06:49:43.258Z,2.55
2023-11-18T06:52:28.194Z,2.57
2023-11-18T06:55:13.120Z,2.62
2023-11-18T06:57:58.082Z,2.57
2023-11-18T07:00:43.212Z,2.57
2023-11-18T07:03:27.892Z,2.60
2023-11-18T07:06:12.703Z,2.57
2023-11-18T07:08:57.722Z,2.58
2023-11-18T07:11:42.740Z,2.61
2023-11-18T07:14:27.574Z,2.60
2023-11-18T07:17:12.526Z,2.64
2023-11-18T07:19:57.620Z,2.67
2023-11-18T07:22:42.577Z,2.69
2023-11-18T07:25:27.486Z,2.74
2023-11-18T07:28:12.436Z,2.74
2023-11-18T07:30:57.643Z,2.84
2023-11-18T07:33:44.826Z,2.88
2023-11-18T07:36:29.564Z,2.86
2023-11-18T07:39:14.681Z,2.90
2023-11-18T07:41:59.581Z,2.90
2023-11-18T07:44:44.571Z,2.91
2023-11-18T07:47:29.519Z,2.95
2023-11-18T07:50:14.559Z,2.97
2023-11-18T07:52:59.362Z,3.06
2023-11-18T07:55:44.305Z,3.07
2023-11-18T07:58:29.584Z,3.10
2023-11-18T08:01:14.450Z,3.11
2023-11-18T08:03:59.449Z,3.08
2023-11-18T08:06:44.354Z,3.08
2023-11-18T08:09:29.366Z,3.11
2023-11-18T08:12:14.346Z,3.14
2023-11-18T08:14:59.286Z,3.16
2023-11-18T08:17:44.391Z,3.16
2023-11-18T08:20:29.193Z,3.21
2023-11-18T08:23:14.448Z,3.27
2023-11-18T08:25:59.331Z,3.31
2023-11-18T08:28:44.386Z,3.38
2023-11-18T08:31:29.154Z,3.40
2023-11-18T08:34:14.072Z,3.47
2023-11-18T08:36:59.050Z,3.53
2023-11-18T08:39:44.041Z,3.60
2023-11-18T08:42:28.788Z,3.69
2023-11-18T08:45:13.822Z,3.66
2023-11-18T08:47:58.876Z,3.65
2023-11-18T08:50:43.677Z,3.74
2023-11-18T08:53:28.800Z,3.87
2023-11-18T08:56:13.599Z,3.88
2023-11-18T08:58:58.490Z,3.86
2023-11-18T09:01:43.661Z,3.85
2023-11-18T09:04:28.989Z,3.84
2023-11-18T09:07:14.067Z,3.93
2023-11-18T09:09:58.967Z,3.97
2023-11-18T09:12:44.296Z,4.01
2023-11-18T09:15:29.184Z,4.07
2023-11-18T09:18:14.263Z,4.10
2023-11-18T09:20:59.036Z,4.12
2023-11-18T09:23:44.043Z,4.11
2023-11-18T09:26:29.006Z,4.27
2023-11-18T09:29:14.091Z,4.33
2023-11-18T09:31:59.217Z,4.37
2023-11-18T09:34:44.036Z,4.28
2023-11-18T09:37:29.142Z,4.23
2023-11-18T09:40:14.064Z,4.27
2023-11-18T09:42:59.179Z,4.22
2023-11-18T09:45:44.185Z,4.18
2023-11-18T09:48:29.224Z,4.19
2023-11-18T09:51:14.447Z,4.18
2023-11-18T09:53:59.380Z,4.26
2023-11-18T09:56:44.486Z,4.33
2023-11-18T09:59:29.485Z,4.34
2023-11-18T10:02:14.543Z,4.35
2023-11-18T10:04:59.622Z,4.30
2023-11-18T10:07:44.950Z,4.32
2023-11-18T10:10:29.983Z,4.33
2023-11-18T10:13:14.856Z,4.31
2023-11-18T10:15:59.830Z,4.28
2023-11-18T10:18:44.753Z,4.33
2023-11-18T10:21:29.727Z,4.34
2023-11-18T10:24:14.652Z,4.38
2023-11-18T10:27:01.022Z,4.39
2023-11-18T10:29:46.175Z,4.42
2023-11-18T10:32:31.251Z,4.34
2023-11-18T10:35:16.353Z,4.34
2023-11-18T10:38:01.312Z,4.33
2023-11-18T10:40:46.426Z,4.33
2023-11-18T10:43:31.348Z,4.35
2023-11-18T10:46:16.452Z,4.43
2023-11-18T10:49:01.281Z,4.44
2023-11-18T10:51:46.109Z,4.45
2023-11-18T10:54:31.003Z,4.41
2023-11-18T10:57:15.914Z,4.36
2023-11-18T11:00:00.717Z,4.38
2023-11-18T11:02:45.648Z,4.44
2023-11-18T11:05:30.637Z,4.41
2023-11-18T11:08:16.766Z,4.41
2023-11-18T11:11:03.722Z,4.48
2023-11-18T11:13:48.349Z,4.50
2023-11-18T11:16:33.027Z,4.52
2023-11-18T11:19:18.134Z,4.52
2023-11-18T11:22:03.126Z,4.50
2023-11-18T11:24:48.133Z,4.49
2023-11-18T11:27:33.097Z,4.49
2023-11-18T11:30:17.907Z,4.49
2023-11-18T11:33:02.945Z,4.55
2023-11-18T11:35:47.846Z,4.61
2023-11-18T11:38:32.845Z,4.68
2023-11-18T11:41:17.813Z,4.69
2023-11-18T11:44:02.679Z,4.73
2023-11-18T11:46:47.772Z,4.73
2023-11-18T11:49:32.606Z,4.68
2023-11-18T11:52:18.540Z,4.66
2023-11-18T11:55:03.443Z,4.67
2023-11-18T11:57:48.525Z,4.74
2023-11-18T12:00:34.331Z,4.82
2023-11-18T12:03:19.455Z,4.78
2023-11-18T12:06:04.248Z,4.83
2023-11-18T12:08:49.182Z,4.84
2023-11-18T12:11:34.299Z,4.84
2023-11-18T12:14:19.385Z,4.75
2023-11-18T12:17:04.364Z,4.74
2023-11-18T12:19:49.623Z,4.76
2023-11-18T12:22:34.644Z,4.77
2023-11-18T12:25:19.617Z,4.77
2023-11-18T12:28:04.701Z,4.77
2023-11-18T12:30:49.337Z,4.82
2023-11-18T12:33:34.323Z,4.83
2023-11-18T12:36:19.468Z,4.83
2023-11-18T12:39:04.369Z,4.85
2023-11-18T12:41:49.374Z,4.85
2023-11-18T12:44:34.413Z,4.87
2023-11-18T12:47:19.853Z,4.87
2023-11-18T12:50:04.849Z,4.87
2023-11-18T12:52:49.878Z,4.87
2023-11-18T12:55:34.861Z,4.86
2023-11-18T12:58:19.853Z,4.87
2023-11-18T13:01:04.697Z,4.88
2023-11-18T13:03:49.809Z,4.84
2023-11-18T13:06:34.845Z,4.81
2023-11-18T13:09:19.837Z,4.79
2023-11-18T13:12:04.969Z,4.77
2023-11-18T13:14:49.806Z,4.78
2023-11-18T13:17:34.865Z,4.76
2023-11-18T13:20:19.856Z,4.70
2023-11-18T13:23:05.024Z,4.63
2023-11-18T13:25:50.049Z,4.64
2023-11-18T13:28:35.001Z,4.66
2023-11-18T13:31:20.022Z,4.63
2023-11-18T13:34:05.002Z,4.61
2023-11-18T13:36:49.998Z,4.62
2023-11-18T13:39:35.065Z,4.63
2023-11-18T13:42:20.140Z,4.66
2023-11-18T13:45:05.012Z,4.69
2023-11-18T13:47:49.982Z,4.70
2023-11-18T13:50:35.089Z,4.70
2023-11-18T13:53:20.009Z,4.75
2023-11-18T13:56:04.815Z,4.73
2023-11-18T13:58:49.722Z,4.70
2023-11-18T14:01:34.414Z,4.76
2023-11-18T14:04:19.572Z,4.74
2023-11-18T14:07:04.183Z,4.73
2023-11-18T14:09:49.152Z,4.51
2023-11-18T14:12:33.816Z,4.59
2023-11-18T14:15:18.851Z,4.53
2023-11-18T14:18:03.972Z,4.37
2023-11-18T14:20:49.310Z,4.44
2023-11-18T14:23:34.375Z,4.30
2023-11-18T14:26:19.348Z,4.33
2023-11-18T14:29:04.328Z,4.28
2023-11-18T14:31:49.213Z,4.11
2023-11-18T14:34:34.177Z,4.23
2023-11-18T14:37:19.079Z,4.22
2023-11-18T14:40:04.161Z,4.28
2023-11-18T14:42:48.969Z,4.22
2023-11-18T14:45:33.985Z,4.26
2023-11-18T14:48:19.015Z,4.26
2023-11-18T14:51:03.986Z,4.33
2023-11-18T14:53:49.164Z,4.37
2023-11-18T14:56:34.074Z,4.34
2023-11-18T14:59:19.080Z,4.34
2023-11-18T15:02:04.152Z,4.42
2023-11-18T15:04:49.037Z,4.43
2023-11-18T15:07:33.990Z,4.46
2023-11-18T15:10:18.959Z,4.41
2023-11-18T15:13:03.667Z,4.39
2023-11-18T15:15:48.868Z,4.38
2023-11-18T15:18:33.800Z,4.38
2023-11-18T15:21:18.664Z,4.47
2023-11-18T15:24:03.367Z,4.51
2023-11-18T15:26:51.015Z,4.47
2023-11-18T15:29:36.884Z,4.46
2023-11-18T15:32:21.873Z,4.45
2023-11-18T15:35:06.766Z,4.49
2023-11-18T15:37:52.093Z,4.44
2023-11-18T15:40:37.220Z,4.39
2023-11-18T15:43:22.326Z,4.41
2023-11-18T15:46:07.238Z,4.43
2023-11-18T15:48:51.952Z,4.39
2023-11-18T15:51:36.936Z,4.42
2023-11-18T15:54:21.527Z,4.45
2023-11-18T15:57:06.703Z,4.46
2023-11-18T15:59:51.449Z,4.45
2023-11-18T16:02:36.754Z,4.45
2023-11-18T16:05:22.156Z,4.42
2023-11-18T16:08:07.171Z,4.43
2023-11-18T16:10:52.565Z,4.41
2023-11-18T16:13:37.591Z,4.46
2023-11-18T16:16:23.239Z,4.51
2023-11-18T16:19:08.285Z,4.31
2023-11-18T16:21:53.351Z,4.28
2023-11-18T16:24:38.061Z,4.31
2023-11-18T16:27:23.124Z,4.35
2023-11-18T16:30:08.176Z,4.33
2023-11-18T16:32:52.882Z,4.27
2023-11-18T16:35:38.137Z,4.27
2023-11-18T16:38:23.266Z,4.20
2023-11-18T16:41:08.261Z,4.25
2023-11-18T16:43:53.334Z,4.24
2023-11-18T16:46:38.657Z,4.28
2023-11-18T16:49:23.809Z,4.20
2023-11-18T16:52:08.777Z,4.21
2023-11-18T16:54:53.851Z,4.26
2023-11-18T16:57:38.826Z,4.25
2023-11-18T17:00:24.342Z,4.14
2023-11-18T17:03:09.886Z,4.26
2023-11-18T17:05:55.068Z,4.22
2023-11-18T17:08:40.050Z,4.22
2023-11-18T17:11:25.022Z,4.22
2023-11-18T17:14:09.892Z,4.07
2023-11-18T17:16:54.865Z,4.14
2023-11-18T17:19:39.812Z,4.11
2023-11-18T17:22:24.636Z,4.13
2023-11-18T17:25:09.699Z,4.20
2023-11-18T17:27:54.819Z,4.23
2023-11-18T17:30:39.901Z,4.25
2023-11-18T17:33:24.866Z,4.24
2023-11-18T17:36:09.660Z,4.29
2023-11-18T17:38:54.418Z,4.30
2023-11-18T17:41:39.088Z,4.28
2023-11-18T17:44:24.105Z,4.25
2023-11-18T17:47:08.943Z,4.27
2023-11-18T17:49:53.644Z,4.31
2023-11-18T17:52:38.529Z,4.33
2023-11-18T17:55:23.319Z,4.19
2023-11-18T17:58:08.334Z,4.12
2023-11-18T18:00:53.348Z,4.23
2023-11-18T18:03:38.265Z,4.23
2023-11-18T18:06:23.043Z,4.27
2023-11-18T18:09:08.103Z,4.22
2023-11-18T18:11:53.035Z,4.25
2023-11-18T18:14:38.149Z,4.24
2023-11-18T18:17:23.011Z,4.28
2023-11-18T18:20:08.722Z,4.31
2023-11-18T18:22:53.847Z,4.26
2023-11-18T18:25:38.838Z,4.30
2023-11-18T18:28:23.848Z,4.29
2023-11-18T18:31:08.627Z,4.31
2023-11-18T18:33:53.753Z,4.32
2023-11-18T18:36:38.733Z,4.25
2023-11-18T18:39:23.391Z,4.35
2023-11-18T18:42:08.291Z,4.33
2023-11-18T18:44:53.408Z,4.33
2023-11-18T18:47:38.403Z,4.36
2023-11-18T18:50:23.211Z,4.39
2023-11-18T18:53:08.336Z,4.32
2023-11-18T18:55:52.974Z,3.90
2023-11-18T18:58:37.939Z,4.09
2023-11-18T19:01:23.008Z,4.25
2023-11-18T19:04:08.352Z,4.33
2023-11-18T19:06:53.061Z,4.31
2023-11-18T19:09:38.176Z,4.30
2023-11-18T19:12:23.188Z,4.27
2023-11-18T19:15:07.912Z,4.01
2023-11-18T19:17:53.204Z,4.19
2023-11-18T19:20:37.927Z,4.24
2023-11-18T19:23:23.158Z,4.25
2023-11-18T19:26:08.571Z,4.26
2023-11-18T19:28:53.777Z,4.32
2023-11-18T19:31:38.847Z,4.34
2023-11-18T19:34:23.834Z,4.27
2023-11-18T19:37:08.704Z,4.28
2023-11-18T19:39:53.818Z,4.30
2023-11-18T19:42:39.070Z,4.30
2023-11-18T19:45:24.269Z,4.31
2023-11-18T19:48:09.369Z,4.27
2023-11-18T19:50:54.388Z,4.31
2023-11-18T19:53:39.277Z,4.36
2023-11-18T19:56:24.201Z,4.31
2023-11-18T19:59:09.362Z,4.30
2023-11-18T20:01:54.358Z,4.35
2023-11-18T20:04:39.334Z,4.30
2023-11-18T20:07:24.163Z,4.29
2023-11-18T20:10:09.050Z,4.31
2023-11-18T20:12:54.159Z,4.33
2023-11-18T20:15:39.153Z,4.32
2023-11-18T20:18:24.181Z,4.31
2023-11-18T20:21:09.077Z,4.34
2023-11-18T20:23:53.910Z,4.31
2023-11-18T20:26:39.056Z,4.36
2023-11-18T20:29:23.976Z,4.36
2023-11-18T20:32:08.782Z,4.39
2023-11-18T20:34:53.326Z,4.40
2023-11-18T20:37:38.437Z,4.43
2023-11-18T20:40:23.414Z,4.37
2023-11-18T20:43:08.291Z,4.38
2023-11-18T20:45:53.339Z,4.41
2023-11-18T20:48:47.302Z,4.39
2023-11-18T20:51:35.590Z,4.36
2023-11-18T20:54:20.250Z,4.35
2023-11-18T20:57:05.260Z,4.43
2023-11-18T20:59:50.220Z,4.42
2023-11-18T21:02:35.405Z,4.37
2023-11-18T21:05:20.251Z,4.41
2023-11-18T21:08:05.403Z,4.41
2023-11-18T21:10:50.188Z,4.40
2023-11-18T21:13:35.323Z,4.44
2023-11-18T21:16:21.650Z,4.43
2023-11-18T21:19:09.574Z,4.42
2023-11-18T21:21:54.454Z,4.46
2023-11-18T21:24:39.396Z,4.49
2023-11-18T21:27:24.473Z,4.47
2023-11-18T21:30:09.601Z,4.52
2023-11-18T21:32:54.577Z,4.55
2023-11-18T21:35:39.173Z,4.54
2023-11-18T21:38:24.285Z,4.54
2023-11-18T21:41:09.616Z,4.53
2023-11-18T21:43:54.547Z,4.49
2023-11-18T21:46:40.399Z,4.45
2023-11-18T21:49:25.498Z,4.46
2023-11-18T21:52:10.516Z,4.39
2023-11-18T21:54:55.584Z,4.43
2023-11-18T21:57:40.531Z,4.35
2023-11-18T22:00:25.384Z,4.34
2023-11-18T22:03:10.286Z,4.35
2023-11-18T22:05:55.212Z,4.43
2023-11-18T22:08:40.271Z,4.39
2023-11-18T22:11:25.412Z,4.49
2023-11-18T22:14:10.461Z,4.42
2023-11-18T22:16:55.213Z,4.44
2023-11-18T22:19:40.394Z,4.41
2023-11-18T22:22:33.931Z,4.36
2023-11-18T22:25:19.524Z,4.30
2023-11-18T22:28:07.447Z,4.42
2023-11-18T22:30:52.481Z,4.44
2023-11-18T22:33:37.931Z,4.36
2023-11-18T22:36:23.140Z,4.43
2023-11-18T22:39:08.289Z,4.48
2023-11-18T22:41:54.135Z,4.23
2023-11-18T22:44:40.151Z,4.45
2023-11-18T22:47:25.108Z,4.47
2023-11-18T22:50:09.933Z,4.44
2023-11-18T22:52:55.107Z,4.45
2023-11-18T22:55:40.283Z,4.32
2023-11-18T22:58:25.382Z,4.26
2023-11-18T23:01:10.053Z,4.32
2023-11-18T23:03:55.202Z,4.37
2023-11-18T23:06:40.070Z,4.29
2023-11-18T23:09:25.105Z,4.24
2023-11-18T23:12:09.768Z,4.35
2023-11-18T23:14:54.788Z,4.16
2023-11-18T23:17:39.742Z,4.17
2023-11-18T23:20:24.753Z,4.26
2023-11-18T23:23:09.972Z,4.28
2023-11-18T23:25:54.880Z,4.26
2023-11-18T23:28:39.792Z,4.17
2023-11-18T23:31:24.854Z,4.27
2023-11-18T23:34:09.649Z,4.28
2023-11-18T23:36:54.429Z,4.30
2023-11-18T23:39:41.163Z,4.29
2023-11-18T23:42:27.065Z,4.25
2023-11-18T23:45:12.134Z,4.27
2023-11-18T23:47:57.195Z,4.27
2023-11-18T23:50:42.145Z,4.24
2023-11-18T23:53:26.938Z,4.26
2023-11-18T23:56:11.969Z,4.25
2023-11-18T23:58:56.725Z,4.24
